35.9°F
Current conditions from King Hill
Updated every 5 minutes
 
  Sunday November 23, 2014

Station Historical Data
Daily Summary for October 2, 2011 Units:  Both    English   Metric
« Previous Day
Next Day »
Daily Weekly Monthly Yearly Custom
  High: Low: Average:
Temperature: 52.5 °F /  11.4 °C 42.2 °F /  5.7 °C 47.5 °F /  8.6 °C
Dew Point: 51.4 °F /  10.8 °C 40.9 °F /  4.9 °C 46.4 °F /  8 °C
Humidity: 96% 95% 96%
Wind Speed: 5.0mph /  8km/h - 1.5mph /  2.4km/h
Wind Gust: 10.0mph /  16.1km/h - -
Wind- - SSE
Pressure: 29.92 in /  1013.1 hPa 29.87 in /  1011.4 hPa -
Precipitation: 0.27 in /  6.9 mm    
Historical Graphs
 
 
Tabular Data for October 2, 2011
Time Temperature Dew Point Pressure Wind Wind Speed Wind Gust Humidity Daily Rainfall
00:00 42.2 °F /  5.7 °C 40.9 °F /  4.9 °C 29.88in /  1011.7hPa NNE 2.0mph /  3.2km/h 10.0mph /  16.1km/h 95% 0.61in /  15.5mm
00:05 42.2 °F /  5.7 °C 40.9 °F /  4.9 °C 29.88in /  1011.7hPa NE 1.0mph /  1.6km/h 8.0mph /  12.9km/h 95% 0.00in /  0mm
00:10 42.2 °F /  5.7 °C 40.9 °F /  4.9 °C 29.88in /  1011.7hPa NE 1.0mph /  1.6km/h 7.0mph /  11.3km/h 95% 0.00in /  0mm
00:15 42.2 °F /  5.7 °C 40.9 °F /  4.9 °C 29.89in /  1012.1hPa Calm   7.0mph /  11.3km/h 95% 0.00in /  0mm
00:20 42.3 °F /  5.7 °C 41.0 °F /  5 °C 29.89in /  1012.1hPa Calm   6.0mph /  9.7km/h 95% 0.00in /  0mm
00:25 42.3 °F /  5.7 °C 41.0 °F /  5 °C 29.89in /  1012.1hPa Calm   5.0mph /  8km/h 95% 0.00in /  0mm
00:30 42.4 °F /  5.8 °C 41.1 °F /  5.1 °C 29.89in /  1012.1hPa Calm   1.0mph /  1.6km/h 95% 0.00in /  0mm
00:35 42.4 °F /  5.8 °C 41.1 °F /  5.1 °C 29.89in /  1012.1hPa Calm   1.0mph /  1.6km/h 95% 0.00in /  0mm
00:40 42.5 °F /  5.8 °C 41.2 °F /  5.1 °C 29.89in /  1012.1hPa Calm   1.0mph /  1.6km/h 95% 0.00in /  0mm
00:45 42.5 °F /  5.8 °C 41.2 °F /  5.1 °C 29.89in /  1012.1hPa NNE 1.0mph /  1.6km/h 4.0mph /  6.4km/h 95% 0.00in /  0mm
00:50 42.5 °F /  5.8 °C 41.2 °F /  5.1 °C 29.89in /  1012.1hPa NNE 2.0mph /  3.2km/h 6.0mph /  9.7km/h 95% 0.00in /  0mm
00:55 42.5 °F /  5.8 °C 41.2 °F /  5.1 °C 29.89in /  1012.1hPa NNE 1.0mph /  1.6km/h 7.0mph /  11.3km/h 95% 0.00in /  0mm
01:00 42.5 °F /  5.8 °C 41.2 °F /  5.1 °C 29.88in /  1011.7hPa Calm   7.0mph /  11.3km/h 95% 0.00in /  0mm
01:05 42.5 °F /  5.8 °C 41.2 °F /  5.1 °C 29.89in /  1012.1hPa Calm   7.0mph /  11.3km/h 95% 0.00in /  0mm
01:15 42.5 °F /  5.8 °C 41.2 °F /  5.1 °C 29.88in /  1011.7hPa NE 2.0mph /  3.2km/h 10.0mph /  16.1km/h 95% 0.00in /  0mm
01:20 42.5 °F /  5.8 °C 41.2 °F /  5.1 °C 29.88in /  1011.7hPa NNE 2.0mph /  3.2km/h 10.0mph /  16.1km/h 95% 0.00in /  0mm
01:25 42.5 °F /  5.8 °C 41.2 °F /  5.1 °C 29.88in /  1011.7hPa NNE 5.0mph /  8km/h 9.0mph /  14.5km/h 95% 0.00in /  0mm
01:30 42.4 °F /  5.8 °C 41.1 °F /  5.1 °C 29.89in /  1012.1hPa Calm   9.0mph /  14.5km/h 95% 0.00in /  0mm
01:35 42.5 °F /  5.8 °C 41.2 °F /  5.1 °C 29.89in /  1012.1hPa Calm   4.0mph /  6.4km/h 95% 0.00in /  0mm
01:40 42.5 °F /  5.8 °C 41.2 °F /  5.1 °C 29.89in /  1012.1hPa NNE 1.0mph /  1.6km/h 4.0mph /  6.4km/h 95% 0.00in /  0mm
01:45 42.6 °F /  5.9 °C 41.3 °F /  5.2 °C 29.89in /  1012.1hPa Calm   4.0mph /  6.4km/h 95% 0.00in /  0mm
01:50 42.6 °F /  5.9 °C 41.3 °F /  5.2 °C 29.89in /  1012.1hPa Calm   4.0mph /  6.4km/h 95% 0.00in /  0mm
01:55 42.6 °F /  5.9 °C 41.3 °F /  5.2 °C 29.88in /  1011.7hPa Calm   4.0mph /  6.4km/h 95% 0.00in /  0mm
02:00 42.5 °F /  5.8 °C 41.2 °F /  5.1 °C 29.89in /  1012.1hPa Calm   4.0mph /  6.4km/h 95% 0.00in /  0mm
02:05 42.6 °F /  5.9 °C 41.3 °F /  5.2 °C 29.89in /  1012.1hPa Calm   4.0mph /  6.4km/h 95% 0.00in /  0mm
02:10 42.6 °F /  5.9 °C 41.3 °F /  5.2 °C 29.89in /  1012.1hPa Calm   4.0mph /  6.4km/h 95% 0.00in /  0mm
02:15 42.7 °F /  5.9 °C 41.4 °F /  5.2 °C 29.89in /  1012.1hPa Calm   3.0mph /  4.8km/h 95% 0.00in /  0mm
02:20 42.7 °F /  5.9 °C 41.4 °F /  5.2 °C 29.89in /  1012.1hPa Calm   4.0mph /  6.4km/h 95% 0.00in /  0mm
02:25 42.7 °F /  5.9 °C 41.4 °F /  5.2 °C 29.89in /  1012.1hPa Calm   4.0mph /  6.4km/h 95% 0.00in /  0mm
02:30 42.7 °F /  5.9 °C 41.4 °F /  5.2 °C 29.89in /  1012.1hPa Calm   3.0mph /  4.8km/h 95% 0.00in /  0mm
02:35 42.7 °F /  5.9 °C 41.4 °F /  5.2 °C 29.88in /  1011.7hPa NNE 1.0mph /  1.6km/h 5.0mph /  8km/h 95% 0.00in /  0mm
02:40 42.8 °F /  6 °C 41.5 °F /  5.3 °C 29.88in /  1011.7hPa Calm   5.0mph /  8km/h 95% 0.00in /  0mm
02:45 42.8 °F /  6 °C 41.5 °F /  5.3 °C 29.88in /  1011.7hPa Calm   3.0mph /  4.8km/h 95% 0.00in /  0mm
02:50 42.9 °F /  6.1 °C 41.6 °F /  5.3 °C 29.88in /  1011.7hPa Calm   1.0mph /  1.6km/h 95% 0.00in /  0mm
02:55 42.8 °F /  6 °C 41.5 °F /  5.3 °C 29.88in /  1011.7hPa Calm   2.0mph /  3.2km/h 95% 0.00in /  0mm
03:00 42.9 °F /  6.1 °C 41.6 °F /  5.3 °C 29.88in /  1011.7hPa Calm   3.0mph /  4.8km/h 95% 0.00in /  0mm
03:05 42.9 °F /  6.1 °C 41.6 °F /  5.3 °C 29.88in /  1011.7hPa NE 1.0mph /  1.6km/h 3.0mph /  4.8km/h 95% 0.00in /  0mm
03:10 42.9 °F /  6.1 °C 41.6 °F /  5.3 °C 29.89in /  1012.1hPa Calm   3.0mph /  4.8km/h 95% 0.00in /  0mm
03:15 42.9 °F /  6.1 °C 41.6 °F /  5.3 °C 29.88in /  1011.7hPa Calm   3.0mph /  4.8km/h 95% 0.00in /  0mm
03:20 42.9 °F /  6.1 °C 41.8 °F /  5.4 °C 29.88in /  1011.7hPa North 1.0mph /  1.6km/h 7.0mph /  11.3km/h 96% 0.00in /  0mm
03:25 42.9 °F /  6.1 °C 41.6 °F /  5.3 °C 29.88in /  1011.7hPa Calm   7.0mph /  11.3km/h 95% 0.00in /  0mm
03:30 42.9 °F /  6.1 °C 41.6 °F /  5.3 °C 29.88in /  1011.7hPa NNE 1.0mph /  1.6km/h 5.0mph /  8km/h 95% 0.00in /  0mm
03:35 42.9 °F /  6.1 °C 41.6 °F /  5.3 °C 29.88in /  1011.7hPa NNE 1.0mph /  1.6km/h 5.0mph /  8km/h 95% 0.00in /  0mm
03:40 42.9 °F /  6.1 °C 41.6 °F /  5.3 °C 29.88in /  1011.7hPa NNE 1.0mph /  1.6km/h 4.0mph /  6.4km/h 95% 0.00in /  0mm
03:45 42.9 °F /  6.1 °C 41.8 °F /  5.4 °C 29.88in /  1011.7hPa Calm   3.0mph /  4.8km/h 96% 0.00in /  0mm
03:50 43.1 °F /  6.2 °C 42.0 °F /  5.6 °C 29.89in /  1012.1hPa Calm   1.0mph /  1.6km/h 96% 0.00in /  0mm
03:55 43.1 °F /  6.2 °C 42.0 °F /  5.6 °C 29.88in /  1011.7hPa Calm   2.0mph /  3.2km/h 96% 0.00in /  0mm
04:00 43.1 °F /  6.2 °C 42.0 °F /  5.6 °C 29.88in /  1011.7hPa NNE 1.0mph /  1.6km/h 4.0mph /  6.4km/h 96% 0.00in /  0mm
04:05 43.1 °F /  6.2 °C 42.0 °F /  5.6 °C 29.88in /  1011.7hPa Calm   4.0mph /  6.4km/h 96% 0.00in /  0mm
04:10 43.1 °F /  6.2 °C 42.0 °F /  5.6 °C 29.88in /  1011.7hPa NNE 1.0mph /  1.6km/h 4.0mph /  6.4km/h 96% 0.00in /  0mm
04:15 43.2 °F /  6.2 °C 42.1 °F /  5.6 °C 29.88in /  1011.7hPa Calm   4.0mph /  6.4km/h 96% 0.00in /  0mm
04:20 43.2 °F /  6.2 °C 42.1 °F /  5.6 °C 29.89in /  1012.1hPa Calm   4.0mph /  6.4km/h 96% 0.00in /  0mm
04:25 43.2 °F /  6.2 °C 42.1 °F /  5.6 °C 29.89in /  1012.1hPa Calm   3.0mph /  4.8km/h 96% 0.00in /  0mm
04:30 43.2 °F /  6.2 °C 42.1 °F /  5.6 °C 29.88in /  1011.7hPa Calm   3.0mph /  4.8km/h 96% 0.00in /  0mm
04:35 43.2 °F /  6.2 °C 42.1 °F /  5.6 °C 29.89in /  1012.1hPa NNE 1.0mph /  1.6km/h 5.0mph /  8km/h 96% 0.00in /  0mm
04:40 43.2 °F /  6.2 °C 42.1 °F /  5.6 °C 29.89in /  1012.1hPa NNE 1.0mph /  1.6km/h 5.0mph /  8km/h 96% 0.00in /  0mm
04:45 43.3 °F /  6.3 °C 42.2 °F /  5.7 °C 29.88in /  1011.7hPa NNE 1.0mph /  1.6km/h 5.0mph /  8km/h 96% 0.00in /  0mm
04:50 43.3 °F /  6.3 °C 42.0 °F /  5.6 °C 29.88in /  1011.7hPa NNE 3.0mph /  4.8km/h 7.0mph /  11.3km/h 95% 0.00in /  0mm
04:55 43.3 °F /  6.3 °C 42.0 °F /  5.6 °C 29.88in /  1011.7hPa Calm   7.0mph /  11.3km/h 95% 0.00in /  0mm
05:00 43.4 °F /  6.3 °C 42.1 °F /  5.6 °C 29.88in /  1011.7hPa NNE 1.0mph /  1.6km/h 5.0mph /  8km/h 95% 0.00in /  0mm
05:05 43.4 °F /  6.3 °C 42.1 °F /  5.6 °C 29.89in /  1012.1hPa Calm   6.0mph /  9.7km/h 95% 0.00in /  0mm
05:10 43.4 °F /  6.3 °C 42.3 °F /  5.7 °C 29.89in /  1012.1hPa Calm   6.0mph /  9.7km/h 96% 0.00in /  0mm
05:15 43.4 °F /  6.3 °C 42.1 °F /  5.6 °C 29.89in /  1012.1hPa Calm   1.0mph /  1.6km/h 95% 0.00in /  0mm
05:20 43.5 °F /  6.4 °C 42.4 °F /  5.8 °C 29.89in /  1012.1hPa North 1.0mph /  1.6km/h 5.0mph /  8km/h 96% 0.00in /  0mm
05:25 43.5 °F /  6.4 °C 42.2 °F /  5.7 °C 29.89in /  1012.1hPa Calm   5.0mph /  8km/h 95% 0.00in /  0mm
05:30 43.6 °F /  6.4 °C 42.5 °F /  5.8 °C 29.89in /  1012.1hPa NE 1.0mph /  1.6km/h 4.0mph /  6.4km/h 96% 0.00in /  0mm
05:35 43.6 °F /  6.4 °C 42.5 °F /  5.8 °C 29.89in /  1012.1hPa Calm   4.0mph /  6.4km/h 96% 0.00in /  0mm
05:40 43.6 °F /  6.4 °C 42.5 °F /  5.8 °C 29.89in /  1012.1hPa Calm   3.0mph /  4.8km/h 96% 0.00in /  0mm
05:45 43.6 °F /  6.4 °C 42.5 °F /  5.8 °C 29.89in /  1012.1hPa Calm   1.0mph /  1.6km/h 96% 0.00in /  0mm
05:50 43.7 °F /  6.5 °C 42.6 °F /  5.9 °C 29.89in /  1012.1hPa Calm   1.0mph /  1.6km/h 96% 0.00in /  0mm
05:54 43.7 °F /  6.5 °C 42.6 °F /  5.9 °C 29.89in /  1012.1hPa Calm   3.0mph /  4.8km/h 96% 0.00in /  0mm
06:00 43.7 °F /  6.5 °C 42.6 °F /  5.9 °C 29.89in /  1012.1hPa Calm   3.0mph /  4.8km/h 96% 0.00in /  0mm
06:05 43.7 °F /  6.5 °C 42.6 °F /  5.9 °C 29.90in /  1012.4hPa Calm   3.0mph /  4.8km/h 96% 0.00in /  0mm
06:10 43.8 °F /  6.6 °C 42.7 °F /  5.9 °C 29.90in /  1012.4hPa Calm   1.0mph /  1.6km/h 96% 0.00in /  0mm
06:14 43.9 °F /  6.6 °C 42.8 °F /  6 °C 29.90in /  1012.4hPa Calm   3.0mph /  4.8km/h 96% 0.00in /  0mm
06:20 44.0 °F /  6.7 °C 42.9 °F /  6.1 °C 29.90in /  1012.4hPa Calm   3.0mph /  4.8km/h 96% 0.00in /  0mm
06:25 44.0 °F /  6.7 °C 42.9 °F /  6.1 °C 29.90in /  1012.4hPa Calm   4.0mph /  6.4km/h 96% 0.00in /  0mm
06:29 44.0 °F /  6.7 °C 42.9 °F /  6.1 °C 29.90in /  1012.4hPa Calm   4.0mph /  6.4km/h 96% 0.00in /  0mm
06:35 43.9 °F /  6.6 °C 42.8 °F /  6 °C 29.91in /  1012.8hPa Calm   3.0mph /  4.8km/h 96% 0.00in /  0mm
06:40 43.9 °F /  6.6 °C 42.8 °F /  6 °C 29.90in /  1012.4hPa NNE 1.0mph /  1.6km/h 5.0mph /  8km/h 96% 0.00in /  0mm
06:45 44.0 °F /  6.7 °C 42.9 °F /  6.1 °C 29.90in /  1012.4hPa Calm   5.0mph /  8km/h 96% 0.00in /  0mm
06:49 44.0 °F /  6.7 °C 42.9 °F /  6.1 °C 29.90in /  1012.4hPa Calm   2.0mph /  3.2km/h 96% 0.00in /  0mm
06:55 44.2 °F /  6.8 °C 43.1 °F /  6.2 °C 29.91in /  1012.8hPa NNE 1.0mph /  1.6km/h 5.0mph /  8km/h 96% 0.00in /  0mm
07:00 44.2 °F /  6.8 °C 43.1 °F /  6.2 °C 29.91in /  1012.8hPa Calm   5.0mph /  8km/h 96% 0.00in /  0mm
07:05 44.3 °F /  6.8 °C 43.2 °F /  6.2 °C 29.91in /  1012.8hPa Calm   1.0mph /  1.6km/h 96% 0.00in /  0mm
07:09 44.4 °F /  6.9 °C 43.3 °F /  6.3 °C 29.90in /  1012.4hPa Calm   4.0mph /  6.4km/h 96% 0.00in /  0mm
07:15 44.6 °F /  7 °C 43.5 °F /  6.4 °C 29.90in /  1012.4hPa Calm   4.0mph /  6.4km/h 96% 0.00in /  0mm
07:20 44.7 °F /  7.1 °C 43.6 °F /  6.4 °C 29.90in /  1012.4hPa Calm   4.0mph /  6.4km/h 96% 0.00in /  0mm
07:25 44.8 °F /  7.1 °C 43.7 °F /  6.5 °C 29.91in /  1012.8hPa Calm   3.0mph /  4.8km/h 96% 0.00in /  0mm
07:30 44.9 °F /  7.2 °C 43.8 °F /  6.6 °C 29.91in /  1012.8hPa Calm   2.0mph /  3.2km/h 96% 0.00in /  0mm
07:35 45.0 °F /  7.2 °C 43.9 °F /  6.6 °C 29.91in /  1012.8hPa Calm   2.0mph /  3.2km/h 96% 0.00in /  0mm
07:40 45.0 °F /  7.2 °C 43.9 °F /  6.6 °C 29.92in /  1013.1hPa Calm   2.0mph /  3.2km/h 96% 0.00in /  0mm
07:44 45.0 °F /  7.2 °C 43.9 °F /  6.6 °C 29.92in /  1013.1hPa Calm   2.0mph /  3.2km/h 96% 0.00in /  0mm
07:50 45.2 °F /  7.3 °C 44.1 °F /  6.7 °C 29.91in /  1012.8hPa Calm     96% 0.00in /  0mm
07:55 45.4 °F /  7.4 °C 44.3 °F /  6.8 °C 29.91in /  1012.8hPa North 1.0mph /  1.6km/h 4.0mph /  6.4km/h 96% 0.00in /  0mm
08:00 45.5 °F /  7.5 °C 44.4 °F /  6.9 °C 29.92in /  1013.1hPa Calm   4.0mph /  6.4km/h 96% 0.00in /  0mm
08:05 45.5 °F /  7.5 °C 44.4 °F /  6.9 °C 29.92in /  1013.1hPa Calm   4.0mph /  6.4km/h 96% 0.00in /  0mm
08:09 45.6 °F /  7.6 °C 44.5 °F /  6.9 °C 29.92in /  1013.1hPa Calm   3.0mph /  4.8km/h 96% 0.00in /  0mm
08:15 45.7 °F /  7.6 °C 44.6 °F /  7 °C 29.92in /  1013.1hPa Calm   4.0mph /  6.4km/h 96% 0.00in /  0mm
08:20 45.8 °F /  7.7 °C 44.7 °F /  7.1 °C 29.92in /  1013.1hPa NNE 1.0mph /  1.6km/h 5.0mph /  8km/h 96% 0.00in /  0mm
08:25 45.7 °F /  7.6 °C 44.6 °F /  7 °C 29.92in /  1013.1hPa Calm   5.0mph /  8km/h 96% 0.00in /  0mm
08:29 45.6 °F /  7.6 °C 44.5 °F /  6.9 °C 29.91in /  1012.8hPa Calm   3.0mph /  4.8km/h 96% 0.00in /  0mm
08:35 45.7 °F /  7.6 °C 44.6 °F /  7 °C 29.92in /  1013.1hPa Calm   2.0mph /  3.2km/h 96% 0.00in /  0mm
08:40 45.8 °F /  7.7 °C 44.7 °F /  7.1 °C 29.91in /  1012.8hPa Calm   1.0mph /  1.6km/h 96% 0.00in /  0mm
08:45 46.0 °F /  7.8 °C 44.9 °F /  7.2 °C 29.91in /  1012.8hPa Calm   1.0mph /  1.6km/h 96% 0.00in /  0mm
08:50 46.1 °F /  7.8 °C 45.0 °F /  7.2 °C 29.90in /  1012.4hPa Calm   3.0mph /  4.8km/h 96% 0.00in /  0mm
08:55 46.2 °F /  7.9 °C 45.1 °F /  7.3 °C 29.91in /  1012.8hPa NNE 1.0mph /  1.6km/h 3.0mph /  4.8km/h 96% 0.00in /  0mm
09:00 46.3 °F /  7.9 °C 45.2 °F /  7.3 °C 29.90in /  1012.4hPa NNE 1.0mph /  1.6km/h 3.0mph /  4.8km/h 96% 0.00in /  0mm
09:05 46.4 °F /  8 °C 45.3 °F /  7.4 °C 29.91in /  1012.8hPa Calm   4.0mph /  6.4km/h 96% 0.00in /  0mm
09:10 46.6 °F /  8.1 °C 45.5 °F /  7.5 °C 29.90in /  1012.4hPa Calm   4.0mph /  6.4km/h 96% 0.00in /  0mm
09:14 46.8 °F /  8.2 °C 45.7 °F /  7.6 °C 29.90in /  1012.4hPa Calm   7.0mph /  11.3km/h 96% 0.00in /  0mm
09:20 47.2 °F /  8.4 °C 46.1 °F /  7.8 °C 29.91in /  1012.8hPa Calm   7.0mph /  11.3km/h 96% 0.00in /  0mm
09:25 47.6 °F /  8.7 °C 46.5 °F /  8.1 °C 29.91in /  1012.8hPa Calm   4.0mph /  6.4km/h 96% 0.00in /  0mm
09:29 47.8 °F /  8.8 °C 46.7 °F /  8.2 °C 29.91in /  1012.8hPa Calm   3.0mph /  4.8km/h 96% 0.00in /  0mm
09:35 48.0 °F /  8.9 °C 46.9 °F /  8.3 °C 29.91in /  1012.8hPa Calm   5.0mph /  8km/h 96% 0.00in /  0mm
09:40 48.1 °F /  8.9 °C 47.0 °F /  8.3 °C 29.92in /  1013.1hPa Calm   5.0mph /  8km/h 96% 0.00in /  0mm
09:45 48.2 °F /  9 °C 47.1 °F /  8.4 °C 29.91in /  1012.8hPa Calm   3.0mph /  4.8km/h 96% 0.00in /  0mm
09:49 48.1 °F /  8.9 °C 47.0 °F /  8.3 °C 29.91in /  1012.8hPa Calm   4.0mph /  6.4km/h 96% 0.00in /  0mm
09:55 48.0 °F /  8.9 °C 46.9 °F /  8.3 °C 29.91in /  1012.8hPa Calm   4.0mph /  6.4km/h 96% 0.00in /  0mm
10:00 47.9 °F /  8.8 °C 46.8 °F /  8.2 °C 29.92in /  1013.1hPa Calm   4.0mph /  6.4km/h 96% 0.00in /  0mm
10:05 47.9 °F /  8.8 °C 46.8 °F /  8.2 °C 29.92in /  1013.1hPa Calm   4.0mph /  6.4km/h 96% 0.00in /  0mm
10:09 48.0 °F /  8.9 °C 46.9 °F /  8.3 °C 29.92in /  1013.1hPa Calm   3.0mph /  4.8km/h 96% 0.00in /  0mm
10:15 48.1 °F /  8.9 °C 47.0 °F /  8.3 °C 29.92in /  1013.1hPa Calm   2.0mph /  3.2km/h 96% 0.00in /  0mm
10:20 48.2 °F /  9 °C 47.1 °F /  8.4 °C 29.92in /  1013.1hPa NNE 1.0mph /  1.6km/h 6.0mph /  9.7km/h 96% 0.00in /  0mm
10:25 48.2 °F /  9 °C 47.1 °F /  8.4 °C 29.92in /  1013.1hPa Calm   6.0mph /  9.7km/h 96% 0.00in /  0mm
10:30 48.2 °F /  9 °C 47.1 °F /  8.4 °C 29.92in /  1013.1hPa Calm   7.0mph /  11.3km/h 96% 0.00in /  0mm
10:35 48.4 °F /  9.1 °C 47.3 °F /  8.5 °C 29.92in /  1013.1hPa Calm   7.0mph /  11.3km/h 96% 0.00in /  0mm
10:40 48.5 °F /  9.2 °C 47.4 °F /  8.6 °C 29.92in /  1013.1hPa Calm   3.0mph /  4.8km/h 96% 0.00in /  0mm
10:45 48.6 °F /  9.2 °C 47.5 °F /  8.6 °C 29.92in /  1013.1hPa Calm   3.0mph /  4.8km/h 96% 0.00in /  0mm
10:50 48.8 °F /  9.3 °C 47.7 °F /  8.7 °C 29.92in /  1013.1hPa Calm   3.0mph /  4.8km/h 96% 0.00in /  0mm
10:55 49.0 °F /  9.4 °C 47.9 °F /  8.8 °C 29.92in /  1013.1hPa Calm   3.0mph /  4.8km/h 96% 0.00in /  0mm
11:00 49.1 °F /  9.5 °C 48.0 °F /  8.9 °C 29.92in /  1013.1hPa Calm   3.0mph /  4.8km/h 96% 0.00in /  0mm
11:04 49.2 °F /  9.6 °C 48.1 °F /  8.9 °C 29.92in /  1013.1hPa Calm   4.0mph /  6.4km/h 96% 0.00in /  0mm
11:10 49.5 °F /  9.7 °C 48.4 °F /  9.1 °C 29.92in /  1013.1hPa NNE 3.0mph /  4.8km/h 7.0mph /  11.3km/h 96% 0.00in /  0mm
11:15 49.8 °F /  9.9 °C 48.7 °F /  9.3 °C 29.92in /  1013.1hPa Calm   7.0mph /  11.3km/h 96% 0.00in /  0mm
11:20 50.2 °F /  10.1 °C 49.1 °F /  9.5 °C 29.92in /  1013.1hPa NE 1.0mph /  1.6km/h 7.0mph /  11.3km/h 96% 0.00in /  0mm
11:25 50.5 °F /  10.3 °C 49.4 °F /  9.7 °C 29.91in /  1012.8hPa Calm   7.0mph /  11.3km/h 96% 0.00in /  0mm
11:30 51.0 °F /  10.6 °C 49.9 °F /  9.9 °C 29.91in /  1012.8hPa Calm   3.0mph /  4.8km/h 96% 0.00in /  0mm
11:35 51.4 °F /  10.8 °C 50.3 °F /  10.2 °C 29.91in /  1012.8hPa Calm   3.0mph /  4.8km/h 96% 0.00in /  0mm
11:40 51.7 °F /  10.9 °C 50.6 °F /  10.3 °C 29.91in /  1012.8hPa Calm   3.0mph /  4.8km/h 96% 0.00in /  0mm
11:45 51.8 °F /  11 °C 50.7 °F /  10.4 °C 29.91in /  1012.8hPa Calm   2.0mph /  3.2km/h 96% 0.00in /  0mm
11:50 52.0 °F /  11.1 °C 50.9 °F /  10.5 °C 29.91in /  1012.8hPa Calm   1.0mph /  1.6km/h 96% 0.00in /  0mm
11:55 51.7 °F /  10.9 °C 50.6 °F /  10.3 °C 29.91in /  1012.8hPa Calm   3.0mph /  4.8km/h 96% 0.00in /  0mm
12:00 51.5 °F /  10.8 °C 50.4 °F /  10.2 °C 29.91in /  1012.8hPa Calm   3.0mph /  4.8km/h 96% 0.00in /  0mm
12:05 51.4 °F /  10.8 °C 50.3 °F /  10.2 °C 29.91in /  1012.8hPa Calm   2.0mph /  3.2km/h 96% 0.00in /  0mm
12:10 51.2 °F /  10.7 °C 50.1 °F /  10.1 °C 29.91in /  1012.8hPa Calm   4.0mph /  6.4km/h 96% 0.01in /  0.3mm
12:15 51.2 °F /  10.7 °C 50.1 °F /  10.1 °C 29.92in /  1013.1hPa Calm   4.0mph /  6.4km/h 96% 0.01in /  0.3mm
12:20 51.3 °F /  10.7 °C 50.2 °F /  10.1 °C 29.91in /  1012.8hPa Calm   3.0mph /  4.8km/h 96% 0.01in /  0.3mm
12:25 51.6 °F /  10.9 °C 50.5 °F /  10.3 °C 29.91in /  1012.8hPa Calm   3.0mph /  4.8km/h 96% 0.02in /  0.5mm
12:30 51.7 °F /  10.9 °C 50.6 °F /  10.3 °C 29.91in /  1012.8hPa Calm   5.0mph /  8km/h 96% 0.02in /  0.5mm
12:35 51.6 °F /  10.9 °C 50.5 °F /  10.3 °C 29.90in /  1012.4hPa NNE 1.0mph /  1.6km/h 5.0mph /  8km/h 96% 0.03in /  0.8mm
12:40 51.7 °F /  10.9 °C 50.6 °F /  10.3 °C 29.90in /  1012.4hPa Calm   5.0mph /  8km/h 96% 0.03in /  0.8mm
12:45 51.9 °F /  11.1 °C 50.8 °F /  10.4 °C 29.90in /  1012.4hPa Calm   5.0mph /  8km/h 96% 0.03in /  0.8mm
12:50 51.6 °F /  10.9 °C 50.5 °F /  10.3 °C 29.90in /  1012.4hPa NW 3.0mph /  4.8km/h 5.0mph /  8km/h 96% 0.03in /  0.8mm
12:55 51.8 °F /  11 °C 50.7 °F /  10.4 °C 29.90in /  1012.4hPa Calm   5.0mph /  8km/h 96% 0.04in /  1mm
13:00 52.2 °F /  11.2 °C 51.1 °F /  10.6 °C 29.89in /  1012.1hPa NW 2.0mph /  3.2km/h 5.0mph /  8km/h 96% 0.04in /  1mm
13:05 51.8 °F /  11 °C 50.7 °F /  10.4 °C 29.90in /  1012.4hPa WNW 4.0mph /  6.4km/h 7.0mph /  11.3km/h 96% 0.04in /  1mm
13:10 51.6 °F /  10.9 °C 50.5 °F /  10.3 °C 29.89in /  1012.1hPa WNW 1.0mph /  1.6km/h 7.0mph /  11.3km/h 96% 0.04in /  1mm
13:15 51.9 °F /  11.1 °C 50.8 °F /  10.4 °C 29.90in /  1012.4hPa WNW 1.0mph /  1.6km/h 6.0mph /  9.7km/h 96% 0.04in /  1mm
13:20 52.0 °F /  11.1 °C 50.9 °F /  10.5 °C 29.89in /  1012.1hPa Calm   5.0mph /  8km/h 96% 0.04in /  1mm
13:25 52.4 °F /  11.3 °C 51.3 °F /  10.7 °C 29.89in /  1012.1hPa NW 1.0mph /  1.6km/h 6.0mph /  9.7km/h 96% 0.04in /  1mm
13:30 52.2 °F /  11.2 °C 51.1 °F /  10.6 °C 29.89in /  1012.1hPa NW 2.0mph /  3.2km/h 6.0mph /  9.7km/h 96% 0.04in /  1mm
13:35 52.0 °F /  11.1 °C 50.9 °F /  10.5 °C 29.89in /  1012.1hPa NW 2.0mph /  3.2km/h 6.0mph /  9.7km/h 96% 0.04in /  1mm
13:40 51.9 °F /  11.1 °C 50.8 °F /  10.4 °C 29.89in /  1012.1hPa Calm   6.0mph /  9.7km/h 96% 0.04in /  1mm
13:45 52.1 °F /  11.2 °C 51.0 °F /  10.6 °C 29.89in /  1012.1hPa NW 1.0mph /  1.6km/h 4.0mph /  6.4km/h 96% 0.04in /  1mm
13:50 51.8 °F /  11 °C 50.7 °F /  10.4 °C 29.89in /  1012.1hPa NW 1.0mph /  1.6km/h 4.0mph /  6.4km/h 96% 0.04in /  1mm
13:55 51.5 °F /  10.8 °C 50.4 °F /  10.2 °C 29.89in /  1012.1hPa Calm   5.0mph /  8km/h 96% 0.04in /  1mm
14:00 51.4 °F /  10.8 °C 50.3 °F /  10.2 °C 29.89in /  1012.1hPa Calm   5.0mph /  8km/h 96% 0.04in /  1mm
14:05 51.2 °F /  10.7 °C 50.1 °F /  10.1 °C 29.89in /  1012.1hPa NW 1.0mph /  1.6km/h 5.0mph /  8km/h 96% 0.04in /  1mm
14:10 51.1 °F /  10.6 °C 50.0 °F /  10 °C 29.89in /  1012.1hPa NW 1.0mph /  1.6km/h 5.0mph /  8km/h 96% 0.04in /  1mm
14:15 51.1 °F /  10.6 °C 50.0 °F /  10 °C 29.89in /  1012.1hPa Calm   5.0mph /  8km/h 96% 0.04in /  1mm
14:20 51.1 °F /  10.6 °C 50.0 °F /  10 °C 29.89in /  1012.1hPa NW 1.0mph /  1.6km/h 5.0mph /  8km/h 96% 0.04in /  1mm
14:25 51.1 °F /  10.6 °C 50.0 °F /  10 °C 29.90in /  1012.4hPa Calm   4.0mph /  6.4km/h 96% 0.04in /  1mm
14:30 51.1 °F /  10.6 °C 50.0 °F /  10 °C 29.90in /  1012.4hPa NW 1.0mph /  1.6km/h 3.0mph /  4.8km/h 96% 0.04in /  1mm
14:35 51.2 °F /  10.7 °C 50.1 °F /  10.1 °C 29.89in /  1012.1hPa WNW 2.0mph /  3.2km/h 5.0mph /  8km/h 96% 0.05in /  1.3mm
14:45 51.5 °F /  10.8 °C 50.4 °F /  10.2 °C 29.88in /  1011.7hPa NW 1.0mph /  1.6km/h 7.0mph /  11.3km/h 96% 0.05in /  1.3mm
14:50 51.6 °F /  10.9 °C 50.5 °F /  10.3 °C 29.90in /  1012.4hPa NW 1.0mph /  1.6km/h 7.0mph /  11.3km/h 96% 0.05in /  1.3mm
14:55 51.4 °F /  10.8 °C 50.3 °F /  10.2 °C 29.90in /  1012.4hPa Calm   5.0mph /  8km/h 96% 0.06in /  1.5mm
15:00 51.3 °F /  10.7 °C 50.2 °F /  10.1 °C 29.90in /  1012.4hPa Calm   3.0mph /  4.8km/h 96% 0.06in /  1.5mm
15:05 51.3 °F /  10.7 °C 50.2 °F /  10.1 °C 29.90in /  1012.4hPa Calm   2.0mph /  3.2km/h 96% 0.06in /  1.5mm
15:10 51.5 °F /  10.8 °C 50.4 °F /  10.2 °C 29.89in /  1012.1hPa NW 1.0mph /  1.6km/h 3.0mph /  4.8km/h 96% 0.07in /  1.8mm
15:15 51.4 °F /  10.8 °C 50.3 °F /  10.2 °C 29.89in /  1012.1hPa WNW 1.0mph /  1.6km/h 6.0mph /  9.7km/h 96% 0.07in /  1.8mm
15:20 51.4 °F /  10.8 °C 50.3 °F /  10.2 °C 29.89in /  1012.1hPa West 4.0mph /  6.4km/h 8.0mph /  12.9km/h 96% 0.07in /  1.8mm
15:25 51.4 °F /  10.8 °C 50.3 °F /  10.2 °C 29.89in /  1012.1hPa Calm   8.0mph /  12.9km/h 96% 0.07in /  1.8mm
15:30 51.4 °F /  10.8 °C 50.3 °F /  10.2 °C 29.90in /  1012.4hPa Calm   5.0mph /  8km/h 96% 0.07in /  1.8mm
15:35 51.4 °F /  10.8 °C 50.3 °F /  10.2 °C 29.90in /  1012.4hPa Calm   1.0mph /  1.6km/h 96% 0.07in /  1.8mm
15:40 51.4 °F /  10.8 °C 50.3 °F /  10.2 °C 29.90in /  1012.4hPa Calm   1.0mph /  1.6km/h 96% 0.07in /  1.8mm
15:45 51.3 °F /  10.7 °C 50.2 °F /  10.1 °C 29.89in /  1012.1hPa Calm   2.0mph /  3.2km/h 96% 0.07in /  1.8mm
15:50 51.4 °F /  10.8 °C 50.3 °F /  10.2 °C 29.89in /  1012.1hPa Calm   2.0mph /  3.2km/h 96% 0.07in /  1.8mm
15:55 51.7 °F /  10.9 °C 50.6 °F /  10.3 °C 29.89in /  1012.1hPa Calm   1.0mph /  1.6km/h 96% 0.07in /  1.8mm
16:00 52.1 °F /  11.2 °C 51.0 °F /  10.6 °C 29.88in /  1011.7hPa Calm   3.0mph /  4.8km/h 96% 0.07in /  1.8mm
16:05 52.3 °F /  11.3 °C 51.2 °F /  10.7 °C 29.88in /  1011.7hPa NNW 1.0mph /  1.6km/h 4.0mph /  6.4km/h 96% 0.07in /  1.8mm
16:10 52.2 °F /  11.2 °C 51.1 °F /  10.6 °C 29.87in /  1011.4hPa Calm   4.0mph /  6.4km/h 96% 0.07in /  1.8mm
16:15 52.3 °F /  11.3 °C 51.2 °F /  10.7 °C 29.87in /  1011.4hPa Calm   4.0mph /  6.4km/h 96% 0.07in /  1.8mm
16:20 52.3 °F /  11.3 °C 51.2 °F /  10.7 °C 29.88in /  1011.7hPa Calm   4.0mph /  6.4km/h 96% 0.07in /  1.8mm
16:25 52.4 °F /  11.3 °C 51.3 °F /  10.7 °C 29.88in /  1011.7hPa Calm   4.0mph /  6.4km/h 96% 0.07in /  1.8mm
16:30 52.5 °F /  11.4 °C 51.4 °F /  10.8 °C 29.88in /  1011.7hPa Calm   4.0mph /  6.4km/h 96% 0.07in /  1.8mm
16:35 52.5 °F /  11.4 °C 51.4 °F /  10.8 °C 29.88in /  1011.7hPa Calm   1.0mph /  1.6km/h 96% 0.07in /  1.8mm
16:40 52.4 °F /  11.3 °C 51.3 °F /  10.7 °C 29.88in /  1011.7hPa Calm   1.0mph /  1.6km/h 96% 0.07in /  1.8mm
16:45 52.2 °F /  11.2 °C 51.1 °F /  10.6 °C 29.88in /  1011.7hPa NNW 1.0mph /  1.6km/h 5.0mph /  8km/h 96% 0.07in /  1.8mm
16:50 52.0 °F /  11.1 °C 50.9 °F /  10.5 °C 29.88in /  1011.7hPa Calm   5.0mph /  8km/h 96% 0.07in /  1.8mm
16:55 51.9 °F /  11.1 °C 50.8 °F /  10.4 °C 29.88in /  1011.7hPa Calm     96% 0.07in /  1.8mm
17:00 52.0 °F /  11.1 °C 50.9 °F /  10.5 °C 29.89in /  1012.1hPa Calm   1.0mph /  1.6km/h 96% 0.07in /  1.8mm
17:05 52.0 °F /  11.1 °C 50.9 °F /  10.5 °C 29.89in /  1012.1hPa Calm   2.0mph /  3.2km/h 96% 0.07in /  1.8mm
17:10 51.9 °F /  11.1 °C 50.8 °F /  10.4 °C 29.88in /  1011.7hPa Calm   2.0mph /  3.2km/h 96% 0.07in /  1.8mm
17:15 51.8 °F /  11 °C 50.7 °F /  10.4 °C 29.87in /  1011.4hPa Calm   2.0mph /  3.2km/h 96% 0.07in /  1.8mm
17:20 51.6 °F /  10.9 °C 50.5 °F /  10.3 °C 29.87in /  1011.4hPa NNW 2.0mph /  3.2km/h 4.0mph /  6.4km/h 96% 0.07in /  1.8mm
17:25 51.1 °F /  10.6 °C 50.0 °F /  10 °C 29.89in /  1012.1hPa Calm   4.0mph /  6.4km/h 96% 0.07in /  1.8mm
17:30 50.8 °F /  10.4 °C 49.7 °F /  9.8 °C 29.89in /  1012.1hPa Calm   3.0mph /  4.8km/h 96% 0.08in /  2mm
17:35 50.6 °F /  10.3 °C 49.5 °F /  9.7 °C 29.89in /  1012.1hPa Calm   1.0mph /  1.6km/h 96% 0.08in /  2mm
17:45 50.5 °F /  10.3 °C 49.4 °F /  9.7 °C 29.89in /  1012.1hPa Calm   3.0mph /  4.8km/h 96% 0.08in /  2mm
17:50 50.2 °F /  10.1 °C 49.1 °F /  9.5 °C 29.88in /  1011.7hPa NNW 3.0mph /  4.8km/h 5.0mph /  8km/h 96% 0.08in /  2mm
17:55 50.0 °F /  10 °C 48.9 °F /  9.4 °C 29.89in /  1012.1hPa Calm   5.0mph /  8km/h 96% 0.09in /  2.3mm
18:00 49.9 °F /  9.9 °C 48.8 °F /  9.3 °C 29.90in /  1012.4hPa Calm   4.0mph /  6.4km/h 96% 0.09in /  2.3mm
18:05 49.7 °F /  9.8 °C 48.6 °F /  9.2 °C 29.89in /  1012.1hPa NNW 2.0mph /  3.2km/h 4.0mph /  6.4km/h 96% 0.09in /  2.3mm
18:10 49.6 °F /  9.8 °C 48.5 °F /  9.2 °C 29.89in /  1012.1hPa NW 1.0mph /  1.6km/h 9.0mph /  14.5km/h 96% 0.09in /  2.3mm
18:15 49.5 °F /  9.7 °C 48.4 °F /  9.1 °C 29.91in /  1012.8hPa Calm   9.0mph /  14.5km/h 96% 0.11in /  2.8mm
18:20 49.5 °F /  9.7 °C 48.4 °F /  9.1 °C 29.91in /  1012.8hPa Calm   3.0mph /  4.8km/h 96% 0.12in /  3mm
18:25 49.4 °F /  9.7 °C 48.3 °F /  9.1 °C 29.89in /  1012.1hPa NW 1.0mph /  1.6km/h 5.0mph /  8km/h 96% 0.16in /  4.1mm
18:30 49.4 °F /  9.7 °C 48.3 °F /  9.1 °C 29.89in /  1012.1hPa Calm   5.0mph /  8km/h 96% 0.17in /  4.3mm
18:35 49.4 °F /  9.7 °C 48.3 °F /  9.1 °C 29.90in /  1012.4hPa Calm   1.0mph /  1.6km/h 96% 0.19in /  4.8mm
18:40 49.4 °F /  9.7 °C 48.3 °F /  9.1 °C 29.91in /  1012.8hPa Calm   1.0mph /  1.6km/h 96% 0.19in /  4.8mm
18:45 49.4 °F /  9.7 °C 48.3 °F /  9.1 °C 29.91in /  1012.8hPa Calm   2.0mph /  3.2km/h 96% 0.19in /  4.8mm
18:50 49.4 °F /  9.7 °C 48.3 °F /  9.1 °C 29.91in /  1012.8hPa Calm   2.0mph /  3.2km/h 96% 0.19in /  4.8mm
18:55 49.4 °F /  9.7 °C 48.3 °F /  9.1 °C 29.91in /  1012.8hPa Calm   1.0mph /  1.6km/h 96% 0.20in /  5.1mm
19:00 49.3 °F /  9.6 °C 48.2 °F /  9 °C 29.91in /  1012.8hPa Calm   1.0mph /  1.6km/h 96% 0.21in /  5.3mm
19:05 49.3 °F /  9.6 °C 48.2 °F /  9 °C 29.91in /  1012.8hPa Calm   1.0mph /  1.6km/h 96% 0.23in /  5.8mm
19:10 49.3 °F /  9.6 °C 48.2 °F /  9 °C 29.91in /  1012.8hPa NW 1.0mph /  1.6km/h 3.0mph /  4.8km/h 96% 0.23in /  5.8mm
19:15 49.2 °F /  9.6 °C 48.1 °F /  8.9 °C 29.91in /  1012.8hPa Calm   3.0mph /  4.8km/h 96% 0.24in /  6.1mm
19:20 49.2 °F /  9.6 °C 48.1 °F /  8.9 °C 29.91in /  1012.8hPa Calm   2.0mph /  3.2km/h 96% 0.25in /  6.4mm
19:25 49.2 °F /  9.6 °C 48.1 °F /  8.9 °C 29.91in /  1012.8hPa NW 2.0mph /  3.2km/h 5.0mph /  8km/h 96% 0.25in /  6.4mm
19:30 49.2 °F /  9.6 °C 48.1 °F /  8.9 °C 29.91in /  1012.8hPa Calm   5.0mph /  8km/h 96% 0.25in /  6.4mm
19:35 49.1 °F /  9.5 °C 48.0 °F /  8.9 °C 29.91in /  1012.8hPa Calm   4.0mph /  6.4km/h 96% 0.26in /  6.6mm
19:40 49.0 °F /  9.4 °C 47.9 °F /  8.8 °C 29.92in /  1013.1hPa Calm   4.0mph /  6.4km/h 96% 0.26in /  6.6mm
19:45 48.9 °F /  9.4 °C 47.8 °F /  8.8 °C 29.92in /  1013.1hPa Calm   4.0mph /  6.4km/h 96% 0.26in /  6.6mm
19:50 48.9 °F /  9.4 °C 47.8 °F /  8.8 °C 29.92in /  1013.1hPa Calm   2.0mph /  3.2km/h 96% 0.26in /  6.6mm
19:55 48.9 °F /  9.4 °C 47.8 °F /  8.8 °C 29.92in /  1013.1hPa Calm   2.0mph /  3.2km/h 96% 0.26in /  6.6mm
20:00 48.8 °F /  9.3 °C 47.7 °F /  8.7 °C 29.92in /  1013.1hPa Calm   2.0mph /  3.2km/h 96% 0.26in /  6.6mm
20:05 48.8 °F /  9.3 °C 47.7 °F /  8.7 °C 29.92in /  1013.1hPa Calm   2.0mph /  3.2km/h 96% 0.26in /  6.6mm
20:10 48.8 °F /  9.3 °C 47.7 °F /  8.7 °C 29.92in /  1013.1hPa Calm   2.0mph /  3.2km/h 96% 0.26in /  6.6mm
20:15 48.7 °F /  9.3 °C 47.6 °F /  8.7 °C 29.92in /  1013.1hPa Calm   4.0mph /  6.4km/h 96% 0.26in /  6.6mm
20:20 48.6 °F /  9.2 °C 47.5 °F /  8.6 °C 29.91in /  1012.8hPa Calm   4.0mph /  6.4km/h 96% 0.26in /  6.6mm
20:25 48.6 °F /  9.2 °C 47.5 °F /  8.6 °C 29.91in /  1012.8hPa Calm     96% 0.26in /  6.6mm
20:30 48.7 °F /  9.3 °C 47.6 °F /  8.7 °C 29.91in /  1012.8hPa Calm     96% 0.26in /  6.6mm
20:35 48.7 °F /  9.3 °C 47.6 °F /  8.7 °C 29.92in /  1013.1hPa Calm   1.0mph /  1.6km/h 96% 0.26in /  6.6mm
20:40 48.7 °F /  9.3 °C 47.6 °F /  8.7 °C 29.92in /  1013.1hPa Calm   1.0mph /  1.6km/h 96% 0.26in /  6.6mm
20:45 48.7 °F /  9.3 °C 47.6 °F /  8.7 °C 29.92in /  1013.1hPa Calm     96% 0.26in /  6.6mm
20:50 48.8 °F /  9.3 °C 47.7 °F /  8.7 °C 29.92in /  1013.1hPa Calm     96% 0.26in /  6.6mm
20:55 48.8 °F /  9.3 °C 47.7 °F /  8.7 °C 29.91in /  1012.8hPa Calm     96% 0.26in /  6.6mm
21:00 48.8 °F /  9.3 °C 47.7 °F /  8.7 °C 29.91in /  1012.8hPa Calm   2.0mph /  3.2km/h 96% 0.26in /  6.6mm
21:05 48.8 °F /  9.3 °C 47.7 °F /  8.7 °C 29.91in /  1012.8hPa Calm   2.0mph /  3.2km/h 96% 0.26in /  6.6mm
21:10 48.9 °F /  9.4 °C 47.8 °F /  8.8 °C 29.91in /  1012.8hPa Calm   1.0mph /  1.6km/h 96% 0.26in /  6.6mm
21:15 48.9 °F /  9.4 °C 47.8 °F /  8.8 °C 29.92in /  1013.1hPa Calm     96% 0.26in /  6.6mm
21:20 48.9 °F /  9.4 °C 47.8 °F /  8.8 °C 29.91in /  1012.8hPa Calm     96% 0.26in /  6.6mm
21:25 48.9 °F /  9.4 °C 47.8 °F /  8.8 °C 29.91in /  1012.8hPa Calm   1.0mph /  1.6km/h 96% 0.26in /  6.6mm
21:30 48.8 °F /  9.3 °C 47.7 °F /  8.7 °C 29.91in /  1012.8hPa Calm   1.0mph /  1.6km/h 96% 0.26in /  6.6mm
21:35 48.8 °F /  9.3 °C 47.7 °F /  8.7 °C 29.91in /  1012.8hPa Calm     96% 0.26in /  6.6mm
21:40 48.7 °F /  9.3 °C 47.6 °F /  8.7 °C 29.91in /  1012.8hPa Calm   2.0mph /  3.2km/h 96% 0.26in /  6.6mm
21:45 48.7 °F /  9.3 °C 47.6 °F /  8.7 °C 29.91in /  1012.8hPa Calm   2.0mph /  3.2km/h 96% 0.26in /  6.6mm
21:50 48.6 °F /  9.2 °C 47.5 °F /  8.6 °C 29.91in /  1012.8hPa Calm   1.0mph /  1.6km/h 96% 0.26in /  6.6mm
21:55 48.5 °F /  9.2 °C 47.4 °F /  8.6 °C 29.91in /  1012.8hPa Calm   1.0mph /  1.6km/h 96% 0.26in /  6.6mm
22:00 48.4 °F /  9.1 °C 47.3 °F /  8.5 °C 29.91in /  1012.8hPa Calm   3.0mph /  4.8km/h 96% 0.26in /  6.6mm
22:05 48.3 °F /  9.1 °C 47.2 °F /  8.4 °C 29.91in /  1012.8hPa Calm   3.0mph /  4.8km/h 96% 0.26in /  6.6mm
22:10 48.3 °F /  9.1 °C 47.2 °F /  8.4 °C 29.91in /  1012.8hPa Calm   3.0mph /  4.8km/h 96% 0.26in /  6.6mm
22:15 48.2 °F /  9 °C 47.1 °F /  8.4 °C 29.92in /  1013.1hPa Calm     96% 0.26in /  6.6mm
22:20 48.2 °F /  9 °C 47.1 °F /  8.4 °C 29.91in /  1012.8hPa Calm   1.0mph /  1.6km/h 96% 0.26in /  6.6mm
22:25 48.2 °F /  9 °C 47.1 °F /  8.4 °C 29.91in /  1012.8hPa Calm   1.0mph /  1.6km/h 96% 0.26in /  6.6mm
22:30 48.2 °F /  9 °C 47.1 °F /  8.4 °C 29.91in /  1012.8hPa Calm     96% 0.26in /  6.6mm
22:35 48.2 °F /  9 °C 47.1 °F /  8.4 °C 29.91in /  1012.8hPa Calm     96% 0.26in /  6.6mm
22:40 48.2 °F /  9 °C 47.1 °F /  8.4 °C 29.90in /  1012.4hPa Calm     96% 0.26in /  6.6mm
22:45 48.3 °F /  9.1 °C 47.2 °F /  8.4 °C 29.90in /  1012.4hPa Calm     96% 0.26in /  6.6mm
22:50 48.3 °F /  9.1 °C 47.2 °F /  8.4 °C 29.90in /  1012.4hPa Calm     96% 0.26in /  6.6mm
22:55 48.3 °F /  9.1 °C 47.2 °F /  8.4 °C 29.90in /  1012.4hPa Calm     96% 0.26in /  6.6mm
23:00 48.3 °F /  9.1 °C 47.2 °F /  8.4 °C 29.90in /  1012.4hPa Calm     96% 0.26in /  6.6mm
23:05 48.3 °F /  9.1 °C 47.2 °F /  8.4 °C 29.90in /  1012.4hPa Calm     96% 0.26in /  6.6mm
23:10 48.4 °F /  9.1 °C 47.3 °F /  8.5 °C 29.91in /  1012.8hPa Calm     96% 0.26in /  6.6mm
23:15 48.4 °F /  9.1 °C 47.3 °F /  8.5 °C 29.91in /  1012.8hPa Calm     96% 0.26in /  6.6mm
23:20 48.5 °F /  9.2 °C 47.4 °F /  8.6 °C 29.91in /  1012.8hPa Calm     96% 0.26in /  6.6mm
23:25 48.5 °F /  9.2 °C 47.4 °F /  8.6 °C 29.92in /  1013.1hPa Calm     96% 0.26in /  6.6mm
23:30 48.5 °F /  9.2 °C 47.4 °F /  8.6 °C 29.92in /  1013.1hPa Calm     96% 0.26in /  6.6mm
23:35 48.5 °F /  9.2 °C 47.4 °F /  8.6 °C 29.92in /  1013.1hPa Calm     96% 0.26in /  6.6mm
23:40 48.4 °F /  9.1 °C 47.3 °F /  8.5 °C 29.92in /  1013.1hPa Calm   1.0mph /  1.6km/h 96% 0.27in /  6.9mm
23:45 48.4 °F /  9.1 °C 47.3 °F /  8.5 °C 29.92in /  1013.1hPa Calm   1.0mph /  1.6km/h 96% 0.27in /  6.9mm
23:50 48.3 °F /  9.1 °C 47.2 °F /  8.4 °C 29.92in /  1013.1hPa Calm   1.0mph /  1.6km/h 96% 0.27in /  6.9mm
23:55 48.3 °F /  9.1 °C 47.2 °F /  8.4 °C 29.91in /  1012.8hPa Calm   1.0mph /  1.6km/h 96% 0.27in /  6.9mm
Westford Weather
Compliments of Weather Underground

 
 
Current Radar Loop:

Copyright © WestfordWeather.net 2007-2014. All rights reserved.